createdAt,value
2023-05-17T00:00:48.053Z,11.20
2023-05-17T00:03:18.233Z,11.50
2023-05-17T00:05:45.981Z,11.90
2023-05-17T00:08:12.473Z,10.70
2023-05-17T00:10:40.246Z,10.70
2023-05-17T00:13:06.623Z,11.00
2023-05-17T00:15:33.057Z,10.50
2023-05-17T00:17:59.473Z,9.70
2023-05-17T00:20:26.845Z,10.50
2023-05-17T00:22:54.307Z,8.80
2023-05-17T00:25:20.771Z,9.70
2023-05-17T00:27:47.231Z,10.30
2023-05-17T00:30:14.053Z,9.10
2023-05-17T00:32:41.234Z,9.30
2023-05-17T00:35:07.783Z,10.30
2023-05-17T00:37:34.248Z,9.70
2023-05-17T00:40:00.669Z,9.40
2023-05-17T00:42:27.125Z,9.00
2023-05-17T00:44:53.533Z,9.10
2023-05-17T00:47:22.501Z,8.90
2023-05-17T00:49:51.235Z,9.20
2023-05-17T00:52:17.833Z,8.70
2023-05-17T00:54:45.040Z,9.30
2023-05-17T00:57:15.252Z,9.60
2023-05-17T00:59:45.375Z,9.40
2023-05-17T01:02:12.101Z,8.80
2023-05-17T01:04:41.430Z,8.90
2023-05-17T01:07:09.136Z,9.20
2023-05-17T01:09:35.547Z,8.60
2023-05-17T01:13:00.617Z,8.50
2023-05-17T01:15:32.729Z,9.00
2023-05-17T01:17:59.286Z,9.10
2023-05-17T01:20:28.764Z,8.40
2023-05-17T01:23:10.564Z,9.30
2023-05-17T01:26:14.587Z,8.40
2023-05-17T01:28:43.940Z,7.70
2023-05-17T01:33:53.111Z,8.40
2023-05-17T01:36:19.835Z,8.00
2023-05-17T01:38:46.210Z,9.10
2023-05-17T01:41:12.591Z,9.20
2023-05-17T01:43:41.964Z,8.60
2023-05-17T01:46:15.999Z,8.40
2023-05-17T01:48:51.037Z,8.60
2023-05-17T01:51:19.820Z,7.80
2023-05-17T01:53:48.878Z,8.70
2023-05-17T01:56:20.559Z,7.70
2023-05-17T01:58:48.160Z,8.10
2023-05-17T02:01:16.767Z,7.20
2023-05-17T02:03:43.401Z,7.30
2023-05-17T02:06:11.089Z,7.70
2023-05-17T02:08:40.181Z,7.00
2023-05-17T02:11:06.668Z,6.50
2023-05-17T02:13:33.186Z,6.70
2023-05-17T02:16:03.685Z,7.20
2023-05-17T02:18:31.843Z,6.00
2023-05-17T02:20:58.754Z,6.80
2023-05-17T02:23:25.294Z,5.20
2023-05-17T02:25:52.649Z,5.80
2023-05-17T02:28:19.048Z,5.60
2023-05-17T02:30:45.533Z,4.80
2023-05-17T02:33:13.177Z,5.00
2023-05-17T02:35:40.104Z,5.30
2023-05-17T02:38:06.647Z,5.20
2023-05-17T02:40:33.166Z,5.20
2023-05-17T02:43:02.485Z,4.40
2023-05-17T02:45:30.044Z,4.10
2023-05-17T02:47:56.607Z,4.60
2023-05-17T02:50:23.200Z,4.10
2023-05-17T02:52:50.118Z,3.50
2023-05-17T02:55:16.894Z,4.30
2023-05-17T02:57:44.019Z,4.10
2023-05-17T03:00:11.255Z,3.80
2023-05-17T03:02:38.245Z,3.60
2023-05-17T03:05:05.581Z,3.90
2023-05-17T03:07:32.226Z,3.80
2023-05-17T03:09:58.999Z,3.40
2023-05-17T03:12:29.543Z,3.80
2023-05-17T03:14:56.515Z,4.00
2023-05-17T03:17:23.843Z,4.00
2023-05-17T03:19:50.582Z,3.30
2023-05-17T03:22:17.281Z,4.20
2023-05-17T03:24:43.686Z,3.60
2023-05-17T03:27:10.318Z,3.30
2023-05-17T03:29:38.041Z,3.20
2023-05-17T03:32:06.255Z,3.00
2023-05-17T03:34:32.692Z,2.90
2023-05-17T03:37:00.657Z,3.30
2023-05-17T03:39:27.345Z,3.50
2023-05-17T03:41:54.333Z,2.80
2023-05-17T03:44:21.804Z,3.10
2023-05-17T03:46:50.584Z,3.40
2023-05-17T03:49:17.912Z,3.10
2023-05-17T03:51:44.615Z,3.60
2023-05-17T03:54:11.026Z,3.20
2023-05-17T03:56:37.473Z,2.70
2023-05-17T03:59:03.993Z,3.20
2023-05-17T04:01:30.880Z,3.00
2023-05-17T04:03:57.633Z,2.70
2023-05-17T04:06:24.972Z,2.90
2023-05-17T04:08:54.383Z,3.00
2023-05-17T04:11:23.606Z,3.10
2023-05-17T04:13:50.934Z,2.50
2023-05-17T04:16:17.493Z,2.80
2023-05-17T04:18:45.363Z,3.20
2023-05-17T04:21:12.495Z,2.60
2023-05-17T04:23:38.994Z,3.30
2023-05-17T04:26:08.282Z,2.70
2023-05-17T04:28:37.168Z,2.90
2023-05-17T04:31:06.557Z,2.90
2023-05-17T04:33:33.199Z,2.90
2023-05-17T04:35:59.699Z,2.80
2023-05-17T04:38:26.526Z,2.50
2023-05-17T04:41:01.136Z,2.40
2023-05-17T04:43:27.601Z,2.60
2023-05-17T04:45:57.816Z,2.50
2023-05-17T04:48:25.716Z,2.70
2023-05-17T04:50:52.925Z,2.50
2023-05-17T04:53:19.707Z,2.60
2023-05-17T04:55:48.087Z,2.20
2023-05-17T04:58:15.327Z,2.10
2023-05-17T05:00:44.055Z,1.90
2023-05-17T05:03:11.572Z,1.80
2023-05-17T05:05:38.891Z,1.80
2023-05-17T05:08:05.602Z,1.90
2023-05-17T05:10:32.836Z,1.70
2023-05-17T05:13:00.790Z,2.00
2023-05-17T05:15:30.172Z,2.10
2023-05-17T05:17:58.139Z,2.40
2023-05-17T05:20:27.679Z,2.20
2023-05-17T05:22:57.687Z,1.90
2023-05-17T05:25:24.163Z,2.10
2023-05-17T05:27:50.795Z,2.00
2023-05-17T05:30:23.973Z,1.70
2023-05-17T05:32:52.879Z,1.60
2023-05-17T05:35:22.480Z,1.50
2023-05-17T05:37:49.143Z,1.50
2023-05-17T05:40:16.049Z,1.80
2023-05-17T05:42:42.704Z,2.20
2023-05-17T05:45:09.993Z,2.40
2023-05-17T05:47:36.847Z,2.10
2023-05-17T05:50:05.523Z,1.90
2023-05-17T05:52:32.155Z,2.00
2023-05-17T05:54:59.131Z,2.40
2023-05-17T05:57:25.835Z,1.80
2023-05-17T05:59:52.438Z,2.50
2023-05-17T06:02:20.656Z,2.10
2023-05-17T06:04:47.700Z,1.90
2023-05-17T06:07:14.977Z,1.80
2023-05-17T06:09:41.928Z,2.70
2023-05-17T06:12:08.646Z,2.20
2023-05-17T06:14:36.768Z,2.20
2023-05-17T06:17:03.391Z,1.60
2023-05-17T06:19:30.099Z,2.80
2023-05-17T06:21:56.824Z,2.60
2023-05-17T06:24:23.282Z,2.50
2023-05-17T06:26:49.883Z,2.90
2023-05-17T06:29:16.356Z,1.90
2023-05-17T06:31:42.843Z,2.60
2023-05-17T06:34:09.327Z,2.00
2023-05-17T06:36:36.654Z,2.70
2023-05-17T06:39:05.147Z,2.90
2023-05-17T06:41:31.598Z,2.70
2023-05-17T06:43:58.009Z,2.70
2023-05-17T06:46:34.449Z,3.20
2023-05-17T06:49:01.074Z,2.90
2023-05-17T06:51:27.648Z,2.80
2023-05-17T06:53:54.132Z,2.80
2023-05-17T06:56:21.251Z,3.10
2023-05-17T06:58:47.706Z,3.20
2023-05-17T07:01:14.181Z,3.40
2023-05-17T07:03:40.797Z,3.10
2023-05-17T07:06:07.322Z,2.70
2023-05-17T07:08:33.797Z,2.90
2023-05-17T07:11:00.605Z,3.00
2023-05-17T07:13:27.042Z,3.50
2023-05-17T07:15:53.916Z,3.10
2023-05-17T07:18:20.466Z,2.80
2023-05-17T07:20:47.111Z,3.00
2023-05-17T07:23:13.608Z,3.20
2023-05-17T07:25:42.106Z,3.00
2023-05-17T07:28:08.514Z,3.50
2023-05-17T07:30:34.926Z,3.10
2023-05-17T07:33:01.357Z,3.50
2023-05-17T07:35:27.982Z,3.20
2023-05-17T07:37:54.610Z,3.00
2023-05-17T07:40:21.566Z,3.00
2023-05-17T07:42:48.121Z,2.70
2023-05-17T07:45:14.875Z,3.10
2023-05-17T07:47:41.326Z,3.00
2023-05-17T07:50:12.714Z,3.50
2023-05-17T07:52:39.291Z,4.20
2023-05-17T07:55:06.595Z,3.30
2023-05-17T07:57:33.143Z,3.90
2023-05-17T13:02:36.859Z,2.50
2023-05-17T13:05:24.181Z,2.70
2023-05-17T13:07:53.027Z,2.50
2023-05-17T13:10:29.112Z,2.60
2023-05-17T13:13:01.071Z,2.90
2023-05-17T13:15:32.570Z,2.70
2023-05-17T13:18:14.002Z,2.90
2023-05-17T13:20:43.186Z,2.70
2023-05-17T13:23:11.565Z,2.80
2023-05-17T13:25:43.945Z,3.10
2023-05-17T13:28:12.031Z,3.00
2023-05-17T13:30:40.459Z,3.10
2023-05-17T13:33:08.519Z,3.20
2023-05-17T13:35:37.730Z,2.90
2023-05-17T13:38:05.706Z,3.80
2023-05-17T13:40:33.618Z,2.90
2023-05-17T13:43:01.449Z,3.20
2023-05-17T13:45:29.498Z,3.30
2023-05-17T13:47:57.520Z,3.40
2023-05-17T13:50:26.171Z,3.30
2023-05-17T13:52:54.058Z,2.90
2023-05-17T13:55:22.125Z,3.40
2023-05-17T13:57:50.471Z,3.30
2023-05-17T14:00:18.866Z,2.20
2023-05-17T14:02:47.007Z,3.20
2023-05-17T14:05:15.618Z,2.80
2023-05-17T14:07:44.024Z,2.60
2023-05-17T14:10:13.558Z,3.30
2023-05-17T14:12:43.356Z,2.50
2023-05-17T14:15:11.998Z,2.70
2023-05-17T14:17:40.542Z,2.90
2023-05-17T14:20:12.942Z,2.80
2023-05-17T14:22:41.725Z,2.60
2023-05-17T14:25:13.788Z,2.70
2023-05-17T14:27:42.810Z,2.50
2023-05-17T14:30:13.508Z,2.20
2023-05-17T14:32:41.806Z,2.50
2023-05-17T14:35:10.283Z,2.70
2023-05-17T14:37:38.519Z,2.70
2023-05-17T14:40:07.219Z,2.30
2023-05-17T14:42:35.213Z,2.60
2023-05-17T14:45:03.118Z,2.10
2023-05-17T14:47:30.915Z,2.20
2023-05-17T14:49:59.524Z,2.20
2023-05-17T14:52:27.326Z,2.30
2023-05-17T14:54:55.117Z,2.60
2023-05-17T14:57:23.528Z,2.20
2023-05-17T14:59:52.224Z,2.10
2023-05-17T15:02:20.260Z,2.30
2023-05-17T15:04:51.684Z,2.40
2023-05-17T15:07:33.852Z,2.00
2023-05-17T15:10:01.766Z,1.60
2023-05-17T15:12:29.701Z,2.10
2023-05-17T15:14:57.945Z,2.30
2023-05-17T15:17:25.729Z,1.70
2023-05-17T15:19:53.790Z,2.00
2023-05-17T15:22:21.956Z,1.80
2023-05-17T15:24:50.092Z,1.60
2023-05-17T15:27:17.876Z,1.90
2023-05-17T15:29:45.678Z,2.40
2023-05-17T15:32:13.464Z,1.80
2023-05-17T15:34:41.480Z,1.70
2023-05-17T15:37:09.302Z,1.90
2023-05-17T15:39:37.098Z,1.80
2023-05-17T15:42:05.917Z,1.90
2023-05-17T15:44:34.001Z,1.80
2023-05-17T15:47:03.190Z,2.00
2023-05-17T15:49:31.607Z,2.10
2023-05-17T15:51:59.502Z,1.80
2023-05-17T15:54:27.533Z,1.90
2023-05-17T15:56:55.414Z,1.80
2023-05-17T15:59:23.233Z,1.90
2023-05-17T16:01:51.112Z,2.00
2023-05-17T16:04:18.961Z,2.20
2023-05-17T16:06:46.945Z,1.60
2023-05-17T16:09:14.807Z,1.70
2023-05-17T16:11:42.710Z,1.70
2023-05-17T16:14:10.757Z,1.30
2023-05-17T16:16:38.567Z,1.70
2023-05-17T16:19:06.515Z,1.80
2023-05-17T16:21:35.612Z,2.30
2023-05-17T16:24:04.258Z,1.60
2023-05-17T16:26:34.589Z,2.10
2023-05-17T16:29:03.002Z,2.10
2023-05-17T16:31:30.847Z,2.00
2023-05-17T16:34:01.266Z,2.00
2023-05-17T16:36:29.087Z,2.20
2023-05-17T16:38:58.105Z,1.90
2023-05-17T16:41:26.860Z,2.30
2023-05-17T16:43:55.027Z,2.10
2023-05-17T16:46:24.818Z,2.20
2023-05-17T16:48:54.001Z,3.40
2023-05-17T16:51:21.831Z,2.20
2023-05-17T16:53:50.030Z,1.90
2023-05-17T16:56:17.984Z,1.90
2023-05-17T16:58:46.693Z,2.40
2023-05-17T17:01:14.501Z,1.80
2023-05-17T17:03:42.550Z,1.90
2023-05-17T17:06:10.553Z,2.20
2023-05-17T17:08:38.443Z,1.90
2023-05-17T17:11:06.468Z,2.20
2023-05-17T17:13:35.054Z,2.10
2023-05-17T17:16:03.718Z,2.10
2023-05-17T17:18:34.656Z,1.70
2023-05-17T17:21:04.772Z,1.90
2023-05-17T17:23:34.278Z,2.00
2023-05-17T17:26:02.045Z,2.10
2023-05-17T17:28:29.838Z,2.00
2023-05-17T17:30:58.564Z,2.20
2023-05-17T17:33:26.820Z,2.10
2023-05-17T17:35:54.814Z,2.30
2023-05-17T17:38:22.611Z,2.00
2023-05-17T17:40:50.661Z,2.30
2023-05-17T17:43:18.522Z,2.20
2023-05-17T17:45:47.332Z,2.50
2023-05-17T17:48:15.250Z,2.50
2023-05-17T17:50:43.250Z,2.30
2023-05-17T17:53:13.282Z,2.70
2023-05-17T17:55:41.272Z,2.10
2023-05-17T17:58:09.160Z,2.00
2023-05-17T18:00:37.042Z,2.50
2023-05-17T18:03:05.885Z,2.50
2023-05-17T18:05:34.314Z,2.60
2023-05-17T18:08:02.763Z,2.30
2023-05-17T18:10:31.750Z,3.30
2023-05-17T18:13:01.215Z,3.20
2023-05-17T18:15:29.086Z,2.90
2023-05-17T18:17:57.486Z,4.00
2023-05-17T18:20:26.737Z,3.90
2023-05-17T18:22:56.214Z,4.30
2023-05-17T18:25:24.207Z,3.30
2023-05-17T18:27:52.231Z,3.00
2023-05-17T18:30:20.187Z,4.10
2023-05-17T18:32:48.067Z,3.70
2023-05-17T18:35:16.100Z,4.50
2023-05-17T18:37:44.069Z,4.00
2023-05-17T18:40:13.655Z,4.90
2023-05-17T18:42:41.491Z,4.90
2023-05-17T18:45:09.770Z,4.40
2023-05-17T18:47:37.719Z,4.30
2023-05-17T18:50:06.337Z,4.60
2023-05-17T18:52:34.180Z,4.10
2023-05-17T18:55:03.488Z,3.60
2023-05-17T18:57:32.756Z,4.20
2023-05-17T19:00:00.763Z,3.50
2023-05-17T19:02:28.869Z,3.60
2023-05-17T19:04:58.195Z,4.10
2023-05-17T19:07:25.967Z,3.40
2023-05-17T19:09:53.936Z,4.10
2023-05-17T19:12:21.733Z,3.80
2023-05-17T19:14:49.534Z,3.90
2023-05-17T19:17:17.512Z,3.40
2023-05-17T19:19:45.798Z,4.10
2023-05-17T19:22:16.573Z,3.80
2023-05-17T19:24:44.378Z,3.60
2023-05-17T19:27:16.898Z,3.90
2023-05-17T19:29:45.153Z,4.30
2023-05-17T19:32:13.151Z,5.10
2023-05-17T19:34:41.668Z,5.20
2023-05-17T19:37:09.509Z,6.40
2023-05-17T19:39:37.935Z,4.40
2023-05-17T19:42:06.386Z,6.00
2023-05-17T19:44:41.360Z,5.80
2023-05-17T19:47:15.620Z,5.60
2023-05-17T19:49:43.491Z,4.70
2023-05-17T19:52:11.514Z,3.90
2023-05-17T19:54:39.386Z,3.40
2023-05-17T19:57:07.999Z,3.40
2023-05-17T19:59:35.832Z,3.60
2023-05-17T20:02:03.873Z,3.30
2023-05-17T20:04:31.761Z,3.20
2023-05-17T20:07:00.025Z,3.20
2023-05-17T20:09:32.456Z,2.90
2023-05-17T20:12:04.453Z,3.70
2023-05-17T20:14:32.509Z,3.70
2023-05-17T20:17:00.926Z,3.50
2023-05-17T20:19:31.199Z,3.00
2023-05-17T20:21:59.427Z,3.30
2023-05-17T20:24:32.083Z,3.90
2023-05-17T20:27:00.016Z,3.80
2023-05-17T20:29:28.412Z,3.60
2023-05-17T20:31:56.340Z,3.50
2023-05-17T20:34:29.248Z,4.40
2023-05-17T20:36:58.556Z,4.30
2023-05-17T20:39:28.383Z,4.50
2023-05-17T20:41:58.385Z,4.50
2023-05-17T20:44:26.229Z,4.00
2023-05-17T20:46:55.435Z,4.70
2023-05-17T20:49:23.303Z,4.30
2023-05-17T20:51:51.167Z,5.10
2023-05-17T20:54:18.974Z,5.20
2023-05-17T20:56:48.635Z,5.60
2023-05-17T20:59:23.442Z,5.90
2023-05-17T21:01:52.021Z,6.80
2023-05-17T21:04:21.798Z,7.60
2023-05-17T21:06:50.820Z,9.50
2023-05-17T21:09:18.999Z,12.20
2023-05-17T21:11:46.845Z,12.40
2023-05-17T21:14:14.737Z,11.90
2023-05-17T21:16:42.704Z,9.10
2023-05-17T21:19:10.694Z,9.10
2023-05-17T21:21:38.876Z,8.50
2023-05-17T21:24:07.442Z,8.00
2023-05-17T21:26:36.389Z,7.50
2023-05-17T21:29:06.343Z,6.10
2023-05-17T21:31:34.472Z,6.30
2023-05-17T21:34:02.434Z,6.70
2023-05-17T21:36:31.374Z,6.60
2023-05-17T21:38:59.355Z,6.90
2023-05-17T21:41:27.173Z,6.30
2023-05-17T21:43:55.223Z,6.30
2023-05-17T21:46:23.085Z,5.40
2023-05-17T21:48:52.329Z,5.00
2023-05-17T21:51:21.723Z,4.90
2023-05-17T21:53:50.681Z,4.40
2023-05-17T21:56:18.560Z,4.60
2023-05-17T21:58:46.631Z,3.50
2023-05-17T22:01:14.982Z,3.40
2023-05-17T22:03:42.933Z,4.00
2023-05-17T22:06:13.170Z,3.50
2023-05-17T22:08:42.294Z,3.00
2023-05-17T22:11:11.124Z,3.20
2023-05-17T22:13:39.181Z,3.20
2023-05-17T22:16:07.414Z,3.70
2023-05-17T22:18:35.384Z,2.90
2023-05-17T22:21:03.247Z,3.40
2023-05-17T22:23:31.056Z,2.90
2023-05-17T22:26:00.604Z,2.80
2023-05-17T22:28:28.797Z,3.20
2023-05-17T22:30:56.952Z,3.60
2023-05-17T22:33:24.993Z,3.40
2023-05-17T22:35:54.317Z,2.80
2023-05-17T22:38:25.059Z,2.80
2023-05-17T22:40:52.937Z,3.00
2023-05-17T22:43:26.068Z,2.90
2023-05-17T22:45:54.017Z,3.10
2023-05-17T22:48:21.865Z,2.80
2023-05-17T22:50:54.714Z,3.20
2023-05-17T22:53:22.496Z,2.90
2023-05-17T22:55:50.302Z,2.90
2023-05-17T22:58:18.543Z,3.40
2023-05-17T23:00:47.187Z,3.30
2023-05-17T23:03:15.234Z,3.00
2023-05-17T23:05:45.506Z,3.90
2023-05-17T23:08:15.432Z,3.30
2023-05-17T23:10:46.773Z,3.20
2023-05-17T23:13:15.225Z,3.60
2023-05-17T23:15:46.925Z,3.50
2023-05-17T23:18:16.058Z,3.20
2023-05-17T23:20:45.522Z,3.50
2023-05-17T23:23:15.319Z,2.70
2023-05-17T23:25:44.860Z,3.60
2023-05-17T23:28:14.491Z,3.40
2023-05-17T23:30:42.263Z,3.50
2023-05-17T23:33:10.070Z,4.00
2023-05-17T23:35:37.926Z,4.20
2023-05-17T23:38:07.323Z,3.10
2023-05-17T23:40:35.158Z,3.50
2023-05-17T23:43:04.286Z,3.70
2023-05-17T23:45:32.282Z,3.50
2023-05-17T23:48:00.714Z,3.60
2023-05-17T23:50:28.852Z,4.50
2023-05-17T23:52:56.656Z,4.20
2023-05-17T23:55:24.432Z,3.80
2023-05-17T23:57:54.233Z,5.70
